US Marine Corps Barracks, District of Columbia
Current Conditions -  °F | °C
As of 7:52 PM on Tuesday 27 Jan 2015 (Local Time) from KDCA Reporting Station
Few Clouds Few Clouds  
Wind Chill: 22°   Ceiling: Unl
Heat Index: 33°   Visibility: 10mi
Dew Point: 18°   Wind: 17mph
Humidity: 54%   Direction: 320°NW
Pressure: 29.9"   Gusts: 25mph
Location:  38.881°N, 76.9955°W
Report Text: KDCA 280052Z 32015G22KT 10SM FEW090 01/M08 A2990 RMK AO2 SLP124 T00061078
Loading
Personal Weather Stations






























Interactive Weather Map New forecast layout! Learn more

10-Day Weather Forecast

Advertisements
Track Severe Weather on mobile